sensor_id;sensor_type;location;lat;lon;timestamp;temperature;humidity
32400;DHT22;45045;45.440;9.178;2022-07-29T21:38:54;29.40;78.00
32400;DHT22;45045;45.440;9.178;2022-07-29T21:41:19;29.30;79.30
32400;DHT22;45045;45.440;9.178;2022-07-29T21:43:46;29.30;79.10
32400;DHT22;45045;45.440;9.178;2022-07-29T21:46:12;29.30;79.00
32400;DHT22;45045;45.440;9.178;2022-07-29T21:48:40;29.30;78.90
32400;DHT22;45045;45.440;9.178;2022-07-29T21:51:06;29.40;78.80
32400;DHT22;45045;45.440;9.178;2022-07-29T21:53:31;29.30;79.00
32400;DHT22;45045;45.440;9.178;2022-07-29T21:55:57;29.30;79.00
32400;DHT22;45045;45.440;9.178;2022-07-29T21:58:23;29.30;79.00
32400;DHT22;45045;45.440;9.178;2022-07-29T22:00:49;29.30;79.00
32400;DHT22;45045;45.440;9.178;2022-07-29T22:03:15;29.30;78.90
32400;DHT22;45045;45.440;9.178;2022-07-29T22:05:40;29.30;79.00
32400;DHT22;45045;45.440;9.178;2022-07-29T22:08:06;29.30;79.00
32400;DHT22;45045;45.440;9.178;2022-07-29T22:10:32;29.30;79.00
32400;DHT22;45045;45.440;9.178;2022-07-29T22:12:59;29.30;78.90
32400;DHT22;45045;45.440;9.178;2022-07-29T22:15:25;29.30;78.90
32400;DHT22;45045;45.440;9.178;2022-07-29T22:17:52;29.30;78.90
32400;DHT22;45045;45.440;9.178;2022-07-29T22:20:17;29.30;79.00
32400;DHT22;45045;45.440;9.178;2022-07-29T22:22:43;29.30;79.00
32400;DHT22;45045;45.440;9.178;2022-07-29T22:25:09;29.30;79.10
32400;DHT22;45045;45.440;9.178;2022-07-29T22:27:36;29.20;79.30
32400;DHT22;45045;45.440;9.178;2022-07-29T22:30:03;29.20;79.90
32400;DHT22;45045;45.440;9.178;2022-07-29T22:32:29;28.80;81.50
32400;DHT22;45045;45.440;9.178;2022-07-29T22:34:54;28.90;80.90
32400;DHT22;45045;45.440;9.178;2022-07-29T22:37:20;28.90;81.10
32400;DHT22;45045;45.440;9.178;2022-07-29T22:39:46;29.00;80.80
32400;DHT22;45045;45.440;9.178;2022-07-29T22:42:11;28.90;80.60
32400;DHT22;45045;45.440;9.178;2022-07-29T22:44:37;29.00;80.50
32400;DHT22;45045;45.440;9.178;2022-07-29T22:47:03;29.00;80.20
32400;DHT22;45045;45.440;9.178;2022-07-29T22:49:29;29.00;81.30
32400;DHT22;45045;45.440;9.178;2022-07-29T22:51:55;29.00;80.40
32400;DHT22;45045;45.440;9.178;2022-07-29T22:54:23;29.00;80.20
32400;DHT22;45045;45.440;9.178;2022-07-29T22:56:49;29.10;80.10
32400;DHT22;45045;45.440;9.178;2022-07-29T22:59:14;29.00;80.00
32400;DHT22;45045;45.440;9.178;2022-07-29T23:01:40;29.00;79.80
32400;DHT22;45045;45.440;9.178;2022-07-29T23:04:06;29.00;79.80
32400;DHT22;45045;45.440;9.178;2022-07-29T23:06:32;29.00;79.90
32400;DHT22;45045;45.440;9.178;2022-07-29T23:08:58;29.00;79.70
32400;DHT22;45045;45.440;9.178;2022-07-29T23:11:23;29.00;79.70
32400;DHT22;45045;45.440;9.178;2022-07-29T23:13:49;29.00;80.60
32400;DHT22;45045;45.440;9.178;2022-07-29T23:16:15;29.00;79.80
32400;DHT22;45045;45.440;9.178;2022-07-29T23:18:40;28.90;79.80
32400;DHT22;45045;45.440;9.178;2022-07-29T23:21:06;28.90;79.90
32400;DHT22;45045;45.440;9.178;2022-07-29T23:23:32;29.00;80.00
32400;DHT22;45045;45.440;9.178;2022-07-29T23:25:57;28.90;80.10
32400;DHT22;45045;45.440;9.178;2022-07-29T23:28:23;28.90;80.30
32400;DHT22;45045;45.440;9.178;2022-07-29T23:30:48;28.90;80.20
32400;DHT22;45045;45.440;9.178;2022-07-29T23:33:14;28.80;80.80
32400;DHT22;45045;45.440;9.178;2022-07-29T23:35:40;28.70;81.90
32400;DHT22;45045;45.440;9.178;2022-07-29T23:38:06;28.70;80.80
32400;DHT22;45045;45.440;9.178;2022-07-29T23:40:31;28.80;80.90
32400;DHT22;45045;45.440;9.178;2022-07-29T23:42:57;28.80;81.20
32400;DHT22;45045;45.440;9.178;2022-07-29T23:45:23;28.70;81.10
32400;DHT22;45045;45.440;9.178;2022-07-29T23:47:48;28.60;81.60
32400;DHT22;45045;45.440;9.178;2022-07-29T23:50:14;28.60;81.30
32400;DHT22;45045;45.440;9.178;2022-07-29T23:52:42;28.70;81.20
32400;DHT22;45045;45.440;9.178;2022-07-29T23:55:09;28.70;81.00
32400;DHT22;45045;45.440;9.178;2022-07-29T23:57:36;28.70;81.00
